createdAt,value
2018-03-27T00:00:05.407Z,19.72
2018-03-27T00:01:05.396Z,19.72
2018-03-27T00:02:05.463Z,19.82
2018-03-27T00:03:05.788Z,19.80
2018-03-27T00:04:05.480Z,19.75
2018-03-27T00:05:05.517Z,19.76
2018-03-27T00:06:05.661Z,19.70
2018-03-27T00:07:05.589Z,19.71
2018-03-27T00:08:05.609Z,19.71
2018-03-27T00:09:05.662Z,19.65
2018-03-27T00:10:05.978Z,19.76
2018-03-27T00:11:05.688Z,19.75
2018-03-27T00:12:05.823Z,19.75
2018-03-27T00:13:05.746Z,19.75
2018-03-27T00:14:05.778Z,19.78
2018-03-27T00:15:05.806Z,19.82
2018-03-27T00:16:05.833Z,19.72
2018-03-27T00:17:06.116Z,19.70
2018-03-27T00:18:05.908Z,19.86
2018-03-27T00:19:05.924Z,19.68
2018-03-27T00:20:05.959Z,19.70
2018-03-27T00:21:06.028Z,19.79
2018-03-27T00:22:06.079Z,19.70
2018-03-27T00:23:06.091Z,19.72
2018-03-27T00:24:06.325Z,19.71
2018-03-27T00:25:06.208Z,19.58
2018-03-27T00:26:06.131Z,19.68
2018-03-27T00:27:06.178Z,19.72
2018-03-27T00:28:06.255Z,19.71
2018-03-27T00:29:06.269Z,19.75
2018-03-27T00:30:06.258Z,19.68
2018-03-27T00:31:06.597Z,19.65
2018-03-27T00:32:06.350Z,19.67
2018-03-27T00:33:06.353Z,19.67
2018-03-27T00:34:06.365Z,19.64
2018-03-27T00:35:06.458Z,19.71
2018-03-27T00:36:06.434Z,19.76
2018-03-27T00:37:06.463Z,19.61
2018-03-27T00:38:06.815Z,19.71
2018-03-27T00:39:06.544Z,19.71
2018-03-27T00:40:06.556Z,19.72
2018-03-27T00:41:06.579Z,19.68
2018-03-27T00:42:06.653Z,19.72
2018-03-27T00:43:06.645Z,19.68
2018-03-27T00:44:06.669Z,19.60
2018-03-27T00:45:06.941Z,19.62
2018-03-27T00:46:06.722Z,19.58
2018-03-27T00:47:06.787Z,19.68
2018-03-27T00:48:06.829Z,19.58
2018-03-27T00:49:06.807Z,19.68
2018-03-27T00:50:07.011Z,19.57
2018-03-27T00:51:06.870Z,19.61
2018-03-27T00:52:07.160Z,19.60
2018-03-27T00:53:06.929Z,19.62
2018-03-27T00:54:07.176Z,19.71
2018-03-27T00:55:06.988Z,19.58
2018-03-27T00:56:07.016Z,19.65
2018-03-27T00:57:07.429Z,19.65
2018-03-27T00:58:07.086Z,19.65
2018-03-27T00:59:07.644Z,19.53
2018-03-27T01:00:07.136Z,19.64
2018-03-27T01:01:07.215Z,19.60
2018-03-27T01:02:07.341Z,19.60
2018-03-27T01:03:07.296Z,19.58
2018-03-27T01:04:07.293Z,19.58
2018-03-27T01:05:07.337Z,19.60
2018-03-27T01:06:07.704Z,19.61
2018-03-27T01:07:07.415Z,19.57
2018-03-27T01:08:07.490Z,19.57
2018-03-27T01:09:07.515Z,19.50
2018-03-27T01:10:07.507Z,19.55
2018-03-27T01:11:07.570Z,19.53
2018-03-27T01:12:07.523Z,19.60
2018-03-27T01:13:07.857Z,19.61
2018-03-27T01:14:07.614Z,19.61
2018-03-27T01:15:07.598Z,19.61
2018-03-27T01:16:07.960Z,19.61
2018-03-27T01:17:07.645Z,19.62
2018-03-27T01:18:07.671Z,19.46
2018-03-27T01:19:08.090Z,19.60
2018-03-27T01:20:07.767Z,19.60
2018-03-27T01:21:08.193Z,19.53
2018-03-27T01:22:07.803Z,19.52
2018-03-27T01:23:07.871Z,19.57
2018-03-27T01:24:07.895Z,19.50
2018-03-27T01:25:08.226Z,19.52
2018-03-27T01:26:07.907Z,19.50
2018-03-27T01:27:07.967Z,19.50
2018-03-27T01:28:08.047Z,19.60
2018-03-27T01:29:08.185Z,19.53
2018-03-27T01:30:08.075Z,19.55
2018-03-27T01:31:08.398Z,19.57
2018-03-27T01:32:08.105Z,19.55
2018-03-27T01:33:08.165Z,19.46
2018-03-27T01:34:08.172Z,19.53
2018-03-27T01:35:08.181Z,19.55
2018-03-27T01:38:08.559Z,19.53
2018-03-27T01:39:08.284Z,19.58
2018-03-27T01:40:08.320Z,19.55
2018-03-27T01:41:08.371Z,19.55
2018-03-27T01:42:08.373Z,19.53
2018-03-27T01:43:08.516Z,19.55
2018-03-27T01:44:08.768Z,19.47
2018-03-27T01:45:08.587Z,19.52
2018-03-27T01:46:08.500Z,19.47
2018-03-27T01:47:08.517Z,19.49
2018-03-27T01:48:08.544Z,19.55
2018-03-27T01:49:08.574Z,19.42
2018-03-27T01:50:08.916Z,19.43
2018-03-27T01:51:08.645Z,19.38
2018-03-27T01:52:08.677Z,19.52
2018-03-27T01:53:08.722Z,19.45
2018-03-27T01:54:09.028Z,19.40
2018-03-27T01:55:08.753Z,19.42
2018-03-27T01:56:09.243Z,19.39
2018-03-27T01:57:08.813Z,19.50
2018-03-27T01:58:08.864Z,19.42
2018-03-27T01:59:08.872Z,19.45
2018-03-27T02:00:08.906Z,19.46
2018-03-27T02:01:08.927Z,19.42
2018-03-27T02:02:09.556Z,19.50
2018-03-27T02:03:08.995Z,19.50
2018-03-27T02:04:09.088Z,19.43
2018-03-27T02:05:09.109Z,19.47
2018-03-27T02:06:09.089Z,19.47
2018-03-27T02:07:09.108Z,19.50
2018-03-27T02:08:09.384Z,19.47
2018-03-27T02:09:09.271Z,19.45
2018-03-27T02:10:09.212Z,19.45
2018-03-27T02:11:09.273Z,19.47
2018-03-27T02:12:09.250Z,19.47
2018-03-27T02:13:09.280Z,19.40
2018-03-27T02:14:09.609Z,19.43
2018-03-27T02:15:09.544Z,19.42
2018-03-27T02:16:09.372Z,19.45
2018-03-27T02:17:09.406Z,19.43
2018-03-27T02:18:09.428Z,19.42
2018-03-27T02:19:09.464Z,19.38
2018-03-27T02:20:09.887Z,19.47
2018-03-27T02:21:09.545Z,19.45
2018-03-27T02:22:09.547Z,19.43
2018-03-27T02:23:09.582Z,19.45
2018-03-27T02:24:09.604Z,19.40
2018-03-27T02:25:09.632Z,19.42
2018-03-27T02:26:09.912Z,19.45
2018-03-27T02:27:09.691Z,19.35
2018-03-27T02:28:09.720Z,19.42
2018-03-27T02:29:09.752Z,19.38
2018-03-27T02:30:09.777Z,19.35
2018-03-27T02:31:09.877Z,19.35
2018-03-27T02:32:09.838Z,19.34
2018-03-27T02:33:10.184Z,19.35
2018-03-27T02:34:09.901Z,19.35
2018-03-27T02:35:09.982Z,19.39
2018-03-27T02:36:09.955Z,19.38
2018-03-27T02:37:09.985Z,19.27
2018-03-27T02:38:10.015Z,19.35
2018-03-27T02:39:10.043Z,19.30
2018-03-27T02:40:10.393Z,19.40
2018-03-27T02:41:10.099Z,19.27
2018-03-27T02:42:10.155Z,19.31
2018-03-27T02:43:10.159Z,19.38
2018-03-27T02:44:10.191Z,19.30
2018-03-27T02:45:10.218Z,19.30
2018-03-27T02:46:10.347Z,19.35
2018-03-27T02:47:10.608Z,19.25
2018-03-27T02:48:10.306Z,19.30
2018-03-27T02:49:10.345Z,19.31
2018-03-27T02:50:10.364Z,19.32
2018-03-27T02:51:10.394Z,19.27
2018-03-27T02:52:10.421Z,19.27
2018-03-27T02:53:10.454Z,19.35
2018-03-27T02:54:10.778Z,19.32
2018-03-27T02:55:10.638Z,19.31
2018-03-27T02:56:10.554Z,19.25
2018-03-27T02:57:10.570Z,19.27
2018-03-27T02:58:10.600Z,19.28
2018-03-27T02:59:10.627Z,19.24
2018-03-27T03:00:10.665Z,19.32
2018-03-27T03:01:11.028Z,19.28
2018-03-27T03:02:10.752Z,19.25
2018-03-27T03:03:10.746Z,19.28
2018-03-27T03:04:10.774Z,19.28
2018-03-27T03:05:10.805Z,19.25
2018-03-27T03:06:10.846Z,19.30
2018-03-27T03:07:10.871Z,19.21
2018-03-27T03:08:11.190Z,19.27
2018-03-27T03:09:10.939Z,19.28
2018-03-27T03:10:10.948Z,19.27
2018-03-27T03:11:10.988Z,19.24
2018-03-27T03:12:11.011Z,19.28
2018-03-27T03:13:11.034Z,19.27
2018-03-27T03:14:11.067Z,19.23
2018-03-27T03:15:11.343Z,19.30
2018-03-27T03:16:11.177Z,19.30
2018-03-27T03:17:11.153Z,19.31
2018-03-27T03:18:11.241Z,19.31
2018-03-27T03:19:11.252Z,19.27
2018-03-27T03:20:11.241Z,19.31
2018-03-27T03:21:11.286Z,19.23
2018-03-27T03:22:11.698Z,19.27
2018-03-27T03:23:11.350Z,19.24
2018-03-27T03:24:11.373Z,19.25
2018-03-27T03:25:11.388Z,19.31
2018-03-27T03:26:11.416Z,19.27
2018-03-27T03:27:11.443Z,19.27
2018-03-27T03:28:11.474Z,19.25
2018-03-27T03:29:11.751Z,19.25
2018-03-27T03:30:11.538Z,19.31
2018-03-27T03:31:11.710Z,19.31
2018-03-27T03:32:11.599Z,19.28
2018-03-27T03:33:11.677Z,19.24
2018-03-27T03:34:11.690Z,19.30
2018-03-27T03:35:11.677Z,19.23
2018-03-27T03:36:11.958Z,19.21
2018-03-27T03:37:11.741Z,19.21
2018-03-27T03:38:11.872Z,19.28
2018-03-27T03:39:11.806Z,19.17
2018-03-27T03:40:11.826Z,19.16
2018-03-27T03:41:11.855Z,19.17
2018-03-27T03:42:11.902Z,19.17
2018-03-27T03:43:12.162Z,19.17
2018-03-27T03:44:11.944Z,19.17
2018-03-27T03:45:11.970Z,19.24
2018-03-27T03:46:12.000Z,19.17
2018-03-27T03:47:12.029Z,19.23
2018-03-27T03:48:12.060Z,19.15
2018-03-27T03:49:12.338Z,19.21
2018-03-27T03:50:12.126Z,19.16
2018-03-27T03:51:12.146Z,19.21
2018-03-27T03:52:12.173Z,19.20
2018-03-27T03:53:12.204Z,19.13
2018-03-27T03:54:12.235Z,19.20
2018-03-27T03:55:12.571Z,19.20
2018-03-27T03:56:12.301Z,19.13
2018-03-27T03:57:12.341Z,19.21
2018-03-27T03:58:12.355Z,19.17
2018-03-27T03:59:12.436Z,19.17
2018-03-27T04:00:12.479Z,19.12
2018-03-27T04:01:12.687Z,19.13
2018-03-27T04:02:12.469Z,19.09
2018-03-27T04:03:12.499Z,19.16
2018-03-27T04:04:12.529Z,19.20
2018-03-27T04:05:12.681Z,19.17
2018-03-27T04:06:12.582Z,19.16
2018-03-27T04:07:12.879Z,19.09
2018-03-27T04:08:12.702Z,19.10
2018-03-27T04:09:12.672Z,19.09
2018-03-27T04:10:12.700Z,19.12
2018-03-27T04:11:12.742Z,19.07
2018-03-27T04:12:12.778Z,19.13
2018-03-27T04:13:13.295Z,19.09
2018-03-27T04:14:12.845Z,19.01
2018-03-27T04:15:12.857Z,19.10
2018-03-27T04:16:12.914Z,19.12
2018-03-27T04:17:12.900Z,19.06
2018-03-27T04:18:12.930Z,19.10
2018-03-27T04:19:13.313Z,19.07
2018-03-27T04:20:12.989Z,19.06
2018-03-27T04:21:13.019Z,19.07
2018-03-27T04:22:13.057Z,19.12
2018-03-27T04:23:13.088Z,19.12
2018-03-27T04:24:13.112Z,19.05
2018-03-27T04:25:13.441Z,19.09
2018-03-27T04:26:13.213Z,19.09
2018-03-27T04:27:13.196Z,19.07
2018-03-27T04:28:13.249Z,19.09
2018-03-27T04:29:13.258Z,19.07
2018-03-27T04:30:13.280Z,19.06
2018-03-27T04:31:13.561Z,19.09
2018-03-27T04:32:13.337Z,19.07
2018-03-27T04:33:13.372Z,19.12
2018-03-27T04:34:13.400Z,19.09
2018-03-27T04:35:13.426Z,19.09
2018-03-27T04:36:13.463Z,19.09
2018-03-27T04:37:13.745Z,19.12
2018-03-27T04:38:13.512Z,19.06
2018-03-27T04:39:13.547Z,19.09
2018-03-27T04:40:13.576Z,19.15
2018-03-27T04:41:13.603Z,18.99
2018-03-27T04:42:13.639Z,19.06
2018-03-27T04:43:13.971Z,19.06
2018-03-27T04:44:13.690Z,19.06
2018-03-27T04:45:13.719Z,19.10
2018-03-27T04:46:13.748Z,19.06
2018-03-27T04:47:13.786Z,18.99
2018-03-27T04:48:13.829Z,19.06
2018-03-27T04:49:14.088Z,19.06
2018-03-27T04:50:13.872Z,19.05
2018-03-27T04:51:13.904Z,18.99
2018-03-27T04:52:13.922Z,19.06
2018-03-27T04:53:13.993Z,19.07
2018-03-27T04:54:13.986Z,19.02
2018-03-27T04:55:14.325Z,19.06
2018-03-27T04:56:14.051Z,19.01
2018-03-27T04:57:14.070Z,19.05
2018-03-27T04:58:14.101Z,19.01
2018-03-27T04:59:14.126Z,19.01
2018-03-27T05:00:14.171Z,18.97
2018-03-27T05:01:14.489Z,18.99
2018-03-27T05:03:14.270Z,18.94
2018-03-27T05:04:14.269Z,19.01
2018-03-27T05:05:14.296Z,19.05
2018-03-27T05:06:14.334Z,18.94
2018-03-27T05:07:14.361Z,18.99
2018-03-27T05:08:14.694Z,18.94
2018-03-27T05:09:14.417Z,18.93
2018-03-27T05:10:14.446Z,19.02
2018-03-27T05:11:14.474Z,19.01
2018-03-27T05:12:14.516Z,18.96
2018-03-27T05:13:14.535Z,19.02
2018-03-27T05:14:14.663Z,19.02
2018-03-27T05:15:14.843Z,19.02
2018-03-27T05:16:14.667Z,19.02
2018-03-27T05:17:14.648Z,18.97
2018-03-27T05:18:14.679Z,18.96
2018-03-27T05:19:14.709Z,19.02
2018-03-27T05:20:14.734Z,19.02
2018-03-27T05:21:14.840Z,19.05
2018-03-27T05:22:15.154Z,18.97
2018-03-27T05:23:15.297Z,18.96
2018-03-27T05:24:14.858Z,19.02
2018-03-27T05:25:14.877Z,19.01
2018-03-27T05:26:15.025Z,18.96
2018-03-27T05:27:14.951Z,18.96
2018-03-27T05:28:15.219Z,19.02
2018-03-27T05:29:15.278Z,18.96
2018-03-27T05:30:15.024Z,19.02
2018-03-27T05:31:15.205Z,18.97
2018-03-27T05:32:15.087Z,19.02
2018-03-27T05:33:15.116Z,18.94
2018-03-27T05:34:15.239Z,18.99
2018-03-27T05:35:15.179Z,19.02
2018-03-27T05:36:15.514Z,18.96
2018-03-27T05:37:15.282Z,19.01
2018-03-27T05:38:15.279Z,19.02
2018-03-27T05:39:15.306Z,19.07
2018-03-27T05:40:15.354Z,18.96
2018-03-27T05:41:15.365Z,19.02
2018-03-27T05:42:15.483Z,18.93
2018-03-27T05:43:15.725Z,18.97
2018-03-27T05:44:15.440Z,19.05
2018-03-27T05:45:15.482Z,19.02
2018-03-27T05:46:15.590Z,18.96
2018-03-27T05:47:15.522Z,19.01
2018-03-27T05:48:15.798Z,19.02
2018-03-27T05:49:15.579Z,19.02
2018-03-27T05:50:15.967Z,18.96
2018-03-27T05:51:15.649Z,19.02
2018-03-27T05:52:15.804Z,18.91
2018-03-27T05:53:15.763Z,19.06
2018-03-27T05:54:15.723Z,18.96
2018-03-27T05:55:15.761Z,18.96
2018-03-27T05:56:15.935Z,18.96
2018-03-27T05:57:16.113Z,19.01
2018-03-27T05:58:15.922Z,18.96
2018-03-27T05:59:15.879Z,19.05
2018-03-27T06:00:15.901Z,18.99
2018-03-27T06:01:15.921Z,18.97
2018-03-27T06:02:15.952Z,18.97
2018-03-27T06:03:16.016Z,19.05
2018-03-27T06:04:16.311Z,19.02
2018-03-27T06:05:16.037Z,19.02
2018-03-27T06:06:16.069Z,18.91
2018-03-27T06:07:16.105Z,18.97
2018-03-27T06:08:16.126Z,19.02
2018-03-27T06:09:16.159Z,19.07
2018-03-27T06:10:16.190Z,19.01
2018-03-27T06:11:16.527Z,18.97
2018-03-27T06:12:16.246Z,18.99
2018-03-27T06:13:16.323Z,19.05
2018-03-27T06:14:16.318Z,19.01
2018-03-27T06:15:16.336Z,19.05
2018-03-27T06:16:16.364Z,19.05
2018-03-27T06:17:16.390Z,19.05
2018-03-27T06:18:16.723Z,18.96
2018-03-27T06:19:16.530Z,19.01
2018-03-27T06:20:16.478Z,18.94
2018-03-27T06:21:16.572Z,19.06
2018-03-27T06:22:16.786Z,19.01
2018-03-27T06:23:16.574Z,19.02
2018-03-27T06:24:16.864Z,19.02
2018-03-27T06:25:16.649Z,19.05
2018-03-27T06:26:16.653Z,19.02
2018-03-27T06:27:16.689Z,19.05
2018-03-27T06:28:16.721Z,19.06
2018-03-27T06:29:16.811Z,18.99
2018-03-27T06:30:17.070Z,19.12
2018-03-27T06:31:16.796Z,19.10
2018-03-27T06:32:16.825Z,19.05
2018-03-27T06:33:16.879Z,19.12
2018-03-27T06:34:16.907Z,19.01
2018-03-27T06:35:16.915Z,19.10
2018-03-27T06:36:17.246Z,19.10
2018-03-27T06:37:16.980Z,19.10
2018-03-27T06:38:17.002Z,19.12
2018-03-27T06:39:17.058Z,19.06
2018-03-27T06:40:17.083Z,19.09
2018-03-27T06:41:17.127Z,19.09
2018-03-27T06:42:17.388Z,19.10
2018-03-27T06:43:17.147Z,19.06
2018-03-27T06:44:17.183Z,19.13
2018-03-27T06:45:17.205Z,19.12
2018-03-27T06:46:17.235Z,19.02
2018-03-27T06:47:17.264Z,19.10
2018-03-27T06:48:17.598Z,19.06
2018-03-27T06:49:17.317Z,19.13
2018-03-27T06:50:17.376Z,19.07
2018-03-27T06:51:17.382Z,19.07
2018-03-27T06:52:17.479Z,19.12
2018-03-27T06:53:17.442Z,19.06
2018-03-27T06:54:17.773Z,19.13
2018-03-27T06:55:17.497Z,19.13
2018-03-27T06:56:17.524Z,19.09
2018-03-27T06:57:17.574Z,19.15
2018-03-27T06:58:17.599Z,19.17
2018-03-27T06:59:17.616Z,19.17
2018-03-27T07:00:17.972Z,19.10
2018-03-27T07:01:17.675Z,19.17
2018-03-27T07:02:17.744Z,19.21
2018-03-27T07:03:17.746Z,19.17
2018-03-27T07:04:17.822Z,19.16
2018-03-27T07:05:17.850Z,19.17
2018-03-27T07:06:18.138Z,19.21
2018-03-27T07:07:17.988Z,19.21
2018-03-27T07:08:17.909Z,19.23
2018-03-27T07:09:17.929Z,19.23
2018-03-27T07:10:18.019Z,19.15
2018-03-27T07:11:17.983Z,19.20
2018-03-27T07:12:18.327Z,19.21
2018-03-27T07:13:18.026Z,19.15
2018-03-27T07:14:18.111Z,19.30
2018-03-27T07:15:18.120Z,19.27
2018-03-27T07:16:18.224Z,19.28
2018-03-27T07:17:18.154Z,19.23
2018-03-27T07:18:18.533Z,19.28
2018-03-27T07:19:18.286Z,19.25
2018-03-27T07:20:18.316Z,19.28
2018-03-27T07:21:18.272Z,19.28
2018-03-27T07:22:18.285Z,19.28
2018-03-27T07:23:18.314Z,19.27
2018-03-27T07:24:18.605Z,19.28
2018-03-27T07:25:18.381Z,19.30
2018-03-27T07:26:18.408Z,19.28
2018-03-27T07:27:18.431Z,19.28
2018-03-27T07:28:18.463Z,19.24
2018-03-27T07:29:18.546Z,19.27
2018-03-27T07:30:18.769Z,19.34
2018-03-27T07:31:18.550Z,19.32
2018-03-27T07:32:18.580Z,19.38
2018-03-27T07:33:18.614Z,19.27
2018-03-27T07:34:18.736Z,19.27
2018-03-27T07:35:18.694Z,19.40
2018-03-27T07:36:18.696Z,19.42
2018-03-27T07:37:18.990Z,19.39
2018-03-27T07:38:18.762Z,19.34
2018-03-27T07:39:18.797Z,19.39
2018-03-27T07:40:18.832Z,19.40
2018-03-27T07:41:18.857Z,19.35
2018-03-27T07:42:18.874Z,19.47
2018-03-27T07:43:18.958Z,19.40
2018-03-27T07:44:19.184Z,19.45
2018-03-27T07:45:18.968Z,19.45
2018-03-27T07:46:19.016Z,19.43
2018-03-27T07:47:19.029Z,19.45
2018-03-27T07:48:19.054Z,19.43
2018-03-27T07:49:19.083Z,19.40
2018-03-27T07:50:19.118Z,19.43
2018-03-27T07:51:19.496Z,19.39
2018-03-27T07:52:19.172Z,19.38
2018-03-27T07:53:19.214Z,19.50
2018-03-27T07:54:19.231Z,19.45
2018-03-27T07:55:19.276Z,19.55
2018-03-27T07:56:19.293Z,19.52
2018-03-27T07:57:19.318Z,19.45
2018-03-27T07:58:19.599Z,19.50
2018-03-27T07:59:19.385Z,19.47
2018-03-27T08:00:19.428Z,19.49
2018-03-27T08:01:19.447Z,19.49
2018-03-27T08:02:19.476Z,19.53
2018-03-27T08:03:19.498Z,19.55
2018-03-27T08:04:19.526Z,19.52
2018-03-27T08:05:19.912Z,19.49
2018-03-27T08:06:19.602Z,19.49
2018-03-27T08:07:19.617Z,19.58
2018-03-27T08:08:19.646Z,19.61
2018-03-27T08:09:19.677Z,19.60
2018-03-27T08:10:19.706Z,19.57
2018-03-27T08:11:19.748Z,19.60
2018-03-27T08:12:20.015Z,19.58
2018-03-27T08:13:19.870Z,19.60
2018-03-27T08:14:19.828Z,19.57
2018-03-27T08:15:19.862Z,19.67
2018-03-27T08:16:19.946Z,19.68
2018-03-27T08:17:19.920Z,19.71
2018-03-27T08:18:19.944Z,19.72
2018-03-27T08:19:20.279Z,19.71
2018-03-27T08:20:20.008Z,19.71
2018-03-27T08:21:20.031Z,19.70
2018-03-27T08:22:20.080Z,19.65
2018-03-27T08:23:20.093Z,19.71
2018-03-27T08:24:20.239Z,19.71
2018-03-27T08:25:20.149Z,19.71
2018-03-27T08:26:20.430Z,19.67
2018-03-27T08:27:20.220Z,19.78
2018-03-27T08:28:20.241Z,19.75
2018-03-27T08:29:20.279Z,19.79
2018-03-27T08:30:20.304Z,19.78
2018-03-27T08:31:20.336Z,19.75
2018-03-27T08:32:20.357Z,19.82
2018-03-27T08:33:20.688Z,19.76
2018-03-27T08:34:20.419Z,19.78
2018-03-27T08:35:20.454Z,19.79
2018-03-27T08:36:20.535Z,19.75
2018-03-27T08:37:20.534Z,19.72
2018-03-27T08:38:20.539Z,19.76
2018-03-27T08:39:20.568Z,19.76
2018-03-27T08:40:20.867Z,19.78
2018-03-27T08:41:20.629Z,19.79
2018-03-27T08:42:20.667Z,19.85
2018-03-27T08:43:20.742Z,19.87
2018-03-27T08:44:20.766Z,19.80
2018-03-27T08:45:20.745Z,19.79
2018-03-27T08:46:20.778Z,19.80
2018-03-27T08:47:21.078Z,19.85
2018-03-27T08:48:20.863Z,19.82
2018-03-27T08:49:20.924Z,19.80
2018-03-27T08:50:20.905Z,19.87
2018-03-27T08:51:20.932Z,19.94
2018-03-27T08:52:20.959Z,19.92
2018-03-27T08:53:21.308Z,19.95
2018-03-27T08:54:21.090Z,19.89
2018-03-27T08:55:21.059Z,19.92
2018-03-27T08:56:21.076Z,19.94
2018-03-27T08:57:21.148Z,19.94
2018-03-27T08:58:21.138Z,20.01
2018-03-27T08:59:21.487Z,19.94
2018-03-27T09:00:21.201Z,20.01
2018-03-27T09:01:21.277Z,20.00
2018-03-27T09:02:21.265Z,20.01
2018-03-27T09:03:21.289Z,20.01
2018-03-27T09:04:21.352Z,20.12
2018-03-27T09:05:21.699Z,20.12
2018-03-27T09:06:21.445Z,20.02
2018-03-27T09:07:21.410Z,20.10
2018-03-27T09:08:21.548Z,20.08
2018-03-27T09:09:21.516Z,20.10
2018-03-27T09:10:21.520Z,20.15
2018-03-27T09:11:21.843Z,20.16
2018-03-27T09:12:21.562Z,20.10
2018-03-27T09:13:21.599Z,20.13
2018-03-27T09:14:21.770Z,20.20
2018-03-27T09:15:21.660Z,20.16
2018-03-27T09:16:21.682Z,20.13
2018-03-27T09:17:21.963Z,20.17
2018-03-27T09:18:21.742Z,20.17
2018-03-27T09:19:21.775Z,20.19
2018-03-27T09:20:21.810Z,20.16
2018-03-27T09:21:21.841Z,20.17
2018-03-27T09:22:21.870Z,20.13
2018-03-27T09:23:22.220Z,20.16
2018-03-27T09:24:21.922Z,20.16
2018-03-27T09:25:21.954Z,20.16
2018-03-27T09:26:21.984Z,20.16
2018-03-27T09:27:22.020Z,20.15
2018-03-27T09:28:22.052Z,20.22
2018-03-27T09:29:22.326Z,20.26
2018-03-27T09:30:22.129Z,20.25
2018-03-27T09:31:22.140Z,20.23
2018-03-27T09:32:22.172Z,20.20
2018-03-27T09:33:22.204Z,20.25
2018-03-27T09:34:22.235Z,20.25
2018-03-27T09:35:22.518Z,20.30
2018-03-27T09:36:22.298Z,20.37
2018-03-27T09:37:22.362Z,20.38
2018-03-27T09:38:22.357Z,20.30
2018-03-27T09:39:22.380Z,20.30
2018-03-27T09:40:22.425Z,20.30
2018-03-27T09:41:22.761Z,20.33
2018-03-27T09:42:22.476Z,20.38
2018-03-27T09:43:22.505Z,20.38
2018-03-27T09:44:22.564Z,20.35
2018-03-27T09:45:22.614Z,20.34
2018-03-27T09:46:22.593Z,20.38
2018-03-27T09:47:22.890Z,20.40
2018-03-27T09:48:22.664Z,20.41
2018-03-27T09:49:22.698Z,20.41
2018-03-27T09:50:22.746Z,20.50
2018-03-27T09:51:22.752Z,20.44
2018-03-27T09:52:22.796Z,20.46
2018-03-27T09:53:23.062Z,20.48
2018-03-27T09:54:22.838Z,20.48
2018-03-27T09:55:22.899Z,20.42
2018-03-27T09:56:22.905Z,20.38
2018-03-27T09:57:22.938Z,20.51
2018-03-27T09:58:23.006Z,20.51
2018-03-27T09:59:23.309Z,20.46
2018-03-27T10:00:23.057Z,20.54
2018-03-27T10:01:23.066Z,20.41
2018-03-27T10:02:23.198Z,20.46
2018-03-27T10:03:23.125Z,20.50
2018-03-27T10:04:23.147Z,20.54
2018-03-27T10:05:23.182Z,20.57
2018-03-27T10:06:23.512Z,20.53
2018-03-27T10:07:23.249Z,20.57
2018-03-27T10:08:23.318Z,20.61
2018-03-27T10:09:23.304Z,20.63
2018-03-27T10:10:23.340Z,20.66
2018-03-27T10:11:23.373Z,20.64
2018-03-27T10:12:23.391Z,20.66
2018-03-27T10:13:23.672Z,20.64
2018-03-27T10:14:23.469Z,20.64
2018-03-27T10:15:23.488Z,20.68
2018-03-27T10:16:23.521Z,20.68
2018-03-27T10:17:23.665Z,20.61
2018-03-27T10:18:23.586Z,20.64
2018-03-27T10:19:23.612Z,20.61
2018-03-27T10:20:23.946Z,20.72
2018-03-27T10:21:23.673Z,20.68
2018-03-27T10:22:23.706Z,20.71
2018-03-27T10:23:23.742Z,20.69
2018-03-27T10:24:23.771Z,20.82
2018-03-27T10:25:23.804Z,20.73
2018-03-27T10:26:23.851Z,20.73
2018-03-27T10:27:24.221Z,20.78
2018-03-27T10:28:23.941Z,20.81
2018-03-27T10:29:23.917Z,20.79
2018-03-27T10:30:23.950Z,20.72
2018-03-27T10:31:24.010Z,20.75
2018-03-27T10:32:24.030Z,20.79
2018-03-27T10:33:24.116Z,20.79
2018-03-27T10:34:24.438Z,20.83
2018-03-27T10:35:24.123Z,20.81
2018-03-27T10:36:24.153Z,20.78
2018-03-27T10:37:24.184Z,20.75
2018-03-27T10:38:24.234Z,20.83
2018-03-27T10:39:24.229Z,20.90
2018-03-27T10:40:24.263Z,20.83
2018-03-27T10:41:24.603Z,20.85
2018-03-27T10:42:24.329Z,20.82
2018-03-27T10:43:24.352Z,20.83
2018-03-27T10:44:24.391Z,20.88
2018-03-27T10:45:24.469Z,20.87
2018-03-27T10:46:24.447Z,20.87
2018-03-27T10:47:24.487Z,20.88
2018-03-27T10:48:24.809Z,20.90
2018-03-27T10:49:24.542Z,20.88
2018-03-27T10:50:24.588Z,20.93
2018-03-27T10:51:24.606Z,20.88
2018-03-27T10:52:24.635Z,20.93
2018-03-27T10:53:24.697Z,20.91
2018-03-27T10:54:24.708Z,20.88
2018-03-27T10:55:25.028Z,20.94
2018-03-27T10:56:24.761Z,20.87
2018-03-27T10:57:24.791Z,20.94
2018-03-27T10:58:24.827Z,20.88
2018-03-27T10:59:24.854Z,20.91
2018-03-27T11:00:24.886Z,21.00
2018-03-27T11:01:24.922Z,20.91
2018-03-27T11:02:25.200Z,20.87
2018-03-27T11:03:24.976Z,20.96
2018-03-27T11:04:25.024Z,20.98
2018-03-27T11:05:25.039Z,20.88
2018-03-27T11:06:25.077Z,20.94
2018-03-27T11:07:25.105Z,20.98
2018-03-27T11:08:25.146Z,20.97
2018-03-27T11:09:25.415Z,20.96
2018-03-27T11:10:25.200Z,21.01
2018-03-27T11:11:25.226Z,20.97
2018-03-27T11:12:25.263Z,20.98
2018-03-27T11:13:25.292Z,21.03
2018-03-27T11:14:25.326Z,21.08
2018-03-27T11:15:25.364Z,21.08
2018-03-27T11:16:25.944Z,21.09
2018-03-27T11:17:25.418Z,21.06
2018-03-27T11:18:25.449Z,21.01
2018-03-27T11:19:25.481Z,21.03
2018-03-27T11:20:25.560Z,21.13
2018-03-27T11:21:25.569Z,21.13
2018-03-27T11:22:25.578Z,21.09
2018-03-27T11:23:25.905Z,21.11
2018-03-27T11:24:25.641Z,21.13
2018-03-27T11:25:25.694Z,21.11
2018-03-27T11:26:25.706Z,21.26
2018-03-27T11:27:25.732Z,21.21
2018-03-27T11:28:25.792Z,21.19
2018-03-27T11:29:26.085Z,21.19
2018-03-27T11:30:25.848Z,21.19
2018-03-27T11:31:25.857Z,21.24
2018-03-27T11:32:25.898Z,21.21
2018-03-27T11:33:25.921Z,21.24
2018-03-27T11:34:25.980Z,21.18
2018-03-27T11:35:26.294Z,21.21
2018-03-27T11:36:26.033Z,21.27
2018-03-27T11:37:26.053Z,21.28
2018-03-27T11:38:26.083Z,21.34
2018-03-27T11:39:26.116Z,21.18
2018-03-27T11:40:26.146Z,21.28
2018-03-27T11:41:26.486Z,21.26
2018-03-27T11:42:26.217Z,21.27
2018-03-27T11:43:26.237Z,21.30
2018-03-27T11:44:26.371Z,21.30
2018-03-27T11:45:26.310Z,21.28
2018-03-27T11:46:26.353Z,21.28
2018-03-27T11:47:26.637Z,21.24
2018-03-27T11:48:26.399Z,21.28
2018-03-27T11:49:26.506Z,21.31
2018-03-27T11:50:26.580Z,21.19
2018-03-27T11:51:26.500Z,21.26
2018-03-27T11:52:26.534Z,21.31
2018-03-27T11:53:26.816Z,21.30
2018-03-27T11:54:26.612Z,21.33
2018-03-27T11:55:26.618Z,21.33
2018-03-27T11:56:26.667Z,21.22
2018-03-27T11:57:26.692Z,21.19
2018-03-27T11:58:26.716Z,21.27
2018-03-27T11:59:27.048Z,21.30
2018-03-27T12:00:26.775Z,21.30
2018-03-27T12:01:26.809Z,21.26
2018-03-27T12:02:26.856Z,21.27
2018-03-27T12:03:26.878Z,21.27
2018-03-27T12:04:26.909Z,21.26
2018-03-27T12:05:27.405Z,21.21
2018-03-27T12:06:26.965Z,21.22
2018-03-27T12:07:27.096Z,21.27
2018-03-27T12:08:27.094Z,21.18
2018-03-27T12:09:27.075Z,21.27
2018-03-27T12:10:27.108Z,21.28
2018-03-27T12:11:27.426Z,21.16
2018-03-27T12:12:27.154Z,21.13
2018-03-27T12:13:27.203Z,21.26
2018-03-27T12:14:27.257Z,21.18
2018-03-27T12:15:27.256Z,21.16
2018-03-27T12:16:27.299Z,21.13
2018-03-27T12:17:27.615Z,21.26
2018-03-27T12:18:27.351Z,21.21
2018-03-27T12:19:27.383Z,21.19
2018-03-27T12:20:27.476Z,21.13
2018-03-27T12:21:27.472Z,21.19
2018-03-27T12:22:27.474Z,21.21
2018-03-27T12:23:27.822Z,21.26
2018-03-27T12:24:27.538Z,21.19
2018-03-27T12:25:27.567Z,21.22
2018-03-27T12:26:27.614Z,21.19
2018-03-27T12:27:27.635Z,21.16
2018-03-27T12:28:27.680Z,21.11
2018-03-27T12:29:27.992Z,21.11
2018-03-27T12:30:27.722Z,21.03
2018-03-27T12:31:27.776Z,21.12
2018-03-27T12:32:27.807Z,21.06
2018-03-27T12:33:27.878Z,21.06
2018-03-27T12:34:27.880Z,21.05
2018-03-27T12:35:28.210Z,21.06
2018-03-27T12:36:27.920Z,21.06
2018-03-27T12:37:27.943Z,21.09
2018-03-27T12:38:27.980Z,21.08
2018-03-27T12:39:28.152Z,21.05
2018-03-27T12:40:28.048Z,21.08
2018-03-27T12:41:28.141Z,21.00
2018-03-27T12:42:28.416Z,21.06
2018-03-27T12:43:28.127Z,21.08
2018-03-27T12:44:28.176Z,21.06
2018-03-27T12:45:28.196Z,21.09
2018-03-27T12:46:28.226Z,21.01
2018-03-27T12:47:28.253Z,21.01
2018-03-27T12:48:28.306Z,21.06
2018-03-27T12:49:28.624Z,21.05
2018-03-27T12:50:28.345Z,21.12
2018-03-27T12:51:28.382Z,21.12
2018-03-27T12:52:28.422Z,21.18
2018-03-27T12:53:28.458Z,21.15
2018-03-27T12:54:28.473Z,21.11
2018-03-27T12:55:28.504Z,21.13